• Join FlightAware (Why Join?)
  • Login
  • US Flag 
04:00PM EDT


 

Airport Tracker/Info


-or-


 

Live Flight TrackerFlight Track Log ✈ N465TP ✈ 22-Oct-2013 ✈ 11WY - KCOD

Flight Track Log - Related Links

Times and Time Zones

All times are in EDT time to prevent confusion due to time zone crossing. See the N465TP flight status page for this flight to view local times or setup timezone preferences in your user account.

Time Position Orientation Groundspeed Altitude Reporting Facility
EDT Latitude Longitude Course Direction KTS MPH feet Rate Location/Type
07:27PM 44.9522 -105.0758 261° West 144 166 11,100  Level Denver Center
07:28PM 44.9464 -105.1306 261° West 143 165 12,700 1,500 Climbing Denver Center
07:29PM 44.9442 -105.1856 267° West 141 162 14,300 1,380 Climbing Denver Center
07:30PM 44.9386 -105.2408 262° West 141 162 15,600 1,140 Climbing Denver Center
07:31PM 44.9339 -105.3150 265° West 157 181 16,800 600 Climbing Salt Lake Center
07:32PM 44.9275 -105.3889 263° West 181 208 16,900 720 Climbing Salt Lake Center
07:33PM 44.9186 -105.4617 260° West 189 217 18,300 1,440 Climbing Salt Lake Center
07:34PM 44.9147 -105.5217 265° West 164 189 19,900 1,500 Climbing Salt Lake Center
07:35PM 44.9069 -105.5933 261° West 155 178 21,400 1,020 Climbing Salt Lake Center
07:36PM 44.9014 -105.6597 263° West 165 190 22,000 240 Climbing Salt Lake Center
07:37PM 44.8944 -105.7383 263° West 190 219 22,000  Level Salt Lake Center
07:38PM 44.8847 -105.8214 261° West 210 242 22,000  Level Salt Lake Center
07:39PM 44.8769 -105.9067 263° West 218 251 22,000  Level Salt Lake Center
07:40PM 44.8667 -105.9914 260° West 217 250 22,000  Level Denver Center
07:41PM 44.8594 -106.0764 263° West 218 251 22,000  Level Denver Center
07:42PM 44.8494 -106.1606 261° West 218 251 22,000  Level Denver Center
07:43PM 44.8403 -106.2619 263° West 220 253 22,000  Level Salt Lake Center
07:44PM 44.8319 -106.3469 262° West 220 253 22,000  Level Salt Lake Center
07:45PM 44.8219 -106.4336 261° West 224 258 22,000  Level Salt Lake Center
07:46PM 44.8139 -106.5200 263° West 223 257 22,000  Level Salt Lake Center
07:47PM 44.8042 -106.6083 261° West 227 261 22,000  Level Salt Lake Center
07:48PM 44.7944 -106.6967 261° West 229 264 22,000  Level Salt Lake Center
07:49PM 44.7847 -106.7883 262° West 234 269 22,000  Level Salt Lake Center
07:50PM 44.7744 -106.8925 262° West 228 262 22,000  Level Salt Lake Center
07:51PM 44.7644 -106.9806 261° West 227 261 22,000  Level Salt Lake Center
07:52PM 44.7556 -107.0678 262° West 226 260 22,000  Level Salt Lake Center
07:53PM 44.7450 -107.1564 261° West 229 264 22,000  Level Salt Lake Center
07:54PM 44.7347 -107.2439 261° West 228 262 22,000  Level Salt Lake Center
07:55PM 44.7247 -107.3333 261° West 231 266 22,000  Level Salt Lake Center
07:57PM 44.7150 -107.4233 261° West 232 267 22,000  Level Salt Lake Center
07:58PM 44.7042 -107.5119 260° West 231 266 22,000  Level Salt Lake Center
07:59PM 44.6917 -107.6183 261° West 229 264 22,000 -60 Level Salt Lake Center
08:00PM 44.6817 -107.7081 261° West 230 265 21,900  Descending Salt Lake Center
08:01PM 44.6708 -107.7989 261° West 234 269 22,000  Climbing Salt Lake Center
08:02PM 44.6594 -107.8906 260° West 236 272 22,000  Level Salt Lake Center
08:03PM 44.6475 -107.9833 260° West 239 275 22,000  Level Salt Lake Center
08:04PM 44.6364 -108.0756 260° West 239 275 22,000  Level Salt Lake Center
08:05PM 44.6275 -108.1650 262° West 233 268 22,000 -60 Level Salt Lake Center
08:06PM 44.6164 -108.2561 260° West 235 270 21,900 -840 Descending Salt Lake Center
08:07PM 44.6064 -108.3428 261° West 230 265 20,300 -1,620 Descending Salt Lake Center
08:08PM 44.5961 -108.4267 260° West 221 254 18,700 -1,500 Descending Salt Lake Center
08:09PM 44.5853 -108.5114 260° West 220 253 17,300 -1,380 Descending Salt Lake Center